Hazle Township, Pennsylvania
Current Conditions -  °F | °C
As of 10:15 PM on Saturday 25 Oct 2014 (Local Time) from KHZL Reporting Station
Broken Clouds Broken Clouds  
Wind Chill: 59°   Ceiling: 8000
Heat Index: 59°   Visibility: 10mi
Dew Point: 46°   Wind: 10mph
Humidity: 63%   Direction: 250°WSW
Pressure: 29.65"   Gusts: 18mph
Location:  40.9393°N, 75.992°W
Report Text: KHZL 260215Z AUTO 25009G16KT 10SM SCT037 SCT044 BKN080 15/08 A2965 RMK AO2
Loading
Personal Weather Stations






























Interactive Weather Map
Tropical Storm Tracking
New forecast layout! Learn more

10-Day Weather Forecast

Advertisements
Track Severe Weather on mobile